createdAt,value
2019-02-11T00:01:04.153Z,50.21
2019-02-11T00:02:11.554Z,49.78
2019-02-11T00:03:16.756Z,50.27
2019-02-11T00:04:22.196Z,49.67
2019-02-11T00:05:26.955Z,49.92
2019-02-11T00:06:32.116Z,50.44
2019-02-11T00:07:37.599Z,50.62
2019-02-11T00:08:42.572Z,51.51
2019-02-11T00:09:47.226Z,51.04
2019-02-11T00:10:52.550Z,50.91
2019-02-11T00:11:57.305Z,50.54
2019-02-11T00:13:10.169Z,50.38
2019-02-11T00:14:09.749Z,51.05
2019-02-11T00:15:14.709Z,50.65
2019-02-11T00:16:19.289Z,50.53
2019-02-11T00:17:23.891Z,50.85
2019-02-11T00:18:29.146Z,50.92
2019-02-11T00:19:33.842Z,50.04
2019-02-11T00:20:38.790Z,50.15
2019-02-11T00:21:44.660Z,49.53
2019-02-11T00:22:50.138Z,50.05
2019-02-11T00:23:55.117Z,49.53
2019-02-11T00:25:00.057Z,49.83
2019-02-11T00:26:04.995Z,50.91
2019-02-11T00:27:10.147Z,50.74
2019-02-11T00:28:15.359Z,50.59
2019-02-11T00:29:20.253Z,50.33
2019-02-11T00:30:25.723Z,50.07
2019-02-11T00:31:31.024Z,50.53
2019-02-11T00:32:36.187Z,50.20
2019-02-11T00:33:41.421Z,50.54
2019-02-11T00:34:46.194Z,50.39
2019-02-11T00:35:51.439Z,50.31
2019-02-11T00:36:56.987Z,49.99
2019-02-11T00:38:01.709Z,49.81
2019-02-11T00:39:07.554Z,49.83
2019-02-11T00:40:12.440Z,50.12
2019-02-11T00:41:17.456Z,50.36
2019-02-11T00:42:22.466Z,51.19
2019-02-11T00:43:27.682Z,51.13
2019-02-11T00:44:32.752Z,50.32
2019-02-11T00:45:37.894Z,49.84
2019-02-11T00:46:43.077Z,50.26
2019-02-11T00:47:48.311Z,49.84
2019-02-11T00:48:53.509Z,50.19
2019-02-11T00:49:58.537Z,50.04
2019-02-11T00:51:03.523Z,50.38
2019-02-11T00:52:09.009Z,50.28
2019-02-11T00:53:14.074Z,50.11
2019-02-11T00:54:18.932Z,49.88
2019-02-11T00:55:24.300Z,49.91
2019-02-11T00:56:29.577Z,49.90
2019-02-11T00:57:34.937Z,50.10
2019-02-11T00:58:40.571Z,49.80
2019-02-11T00:59:45.801Z,49.58
2019-02-11T01:00:51.056Z,49.03
2019-02-11T01:01:56.314Z,49.62
2019-02-11T01:03:01.535Z,49.36
2019-02-11T01:04:07.077Z,49.11
2019-02-11T01:05:12.054Z,49.48
2019-02-11T01:06:17.046Z,51.18
2019-02-11T01:07:22.245Z,49.51
2019-02-11T01:08:28.164Z,49.85
2019-02-11T01:09:33.410Z,49.18
2019-02-11T01:10:38.357Z,49.97
2019-02-11T01:11:43.400Z,49.49
2019-02-11T01:12:48.419Z,49.15
2019-02-11T01:13:53.658Z,49.70
2019-02-11T01:14:58.915Z,49.90
2019-02-11T01:16:04.178Z,50.01
2019-02-11T01:17:09.115Z,50.79
2019-02-11T01:18:14.331Z,50.99
2019-02-11T01:19:19.221Z,49.81
2019-02-11T01:20:24.186Z,49.62
2019-02-11T01:21:29.423Z,50.03
2019-02-11T01:22:34.334Z,49.38
2019-02-11T01:23:39.491Z,49.87
2019-02-11T01:24:44.221Z,49.57
2019-02-11T01:25:49.981Z,49.13
2019-02-11T01:26:54.860Z,48.90
2019-02-11T01:27:59.812Z,49.02
2019-02-11T01:29:05.217Z,48.79
2019-02-11T01:30:12.200Z,49.60
2019-02-11T01:31:16.976Z,48.86
2019-02-11T01:32:22.173Z,49.33
2019-02-11T01:33:27.425Z,49.71
2019-02-11T01:34:32.295Z,49.05
2019-02-11T01:35:37.326Z,49.23
2019-02-11T01:36:42.942Z,49.45
2019-02-11T01:37:47.964Z,49.88
2019-02-11T01:38:53.210Z,49.44
2019-02-11T01:39:59.110Z,49.96
2019-02-11T01:41:04.082Z,49.72
2019-02-11T01:42:08.774Z,49.33
2019-02-11T01:43:13.646Z,49.76
2019-02-11T01:44:18.629Z,49.50
2019-02-11T01:45:23.425Z,48.85
2019-02-11T01:46:28.965Z,48.48
2019-02-11T01:47:34.486Z,49.53
2019-02-11T01:48:39.227Z,48.97
2019-02-11T01:49:44.408Z,49.13
2019-02-11T01:50:49.909Z,50.33
2019-02-11T01:51:55.139Z,50.14
2019-02-11T01:53:00.665Z,50.03
2019-02-11T01:54:05.086Z,50.62
2019-02-11T01:55:10.626Z,50.43
2019-02-11T01:56:15.876Z,51.87
2019-02-11T01:57:21.136Z,51.96
2019-02-11T01:58:26.367Z,50.76
2019-02-11T01:59:31.348Z,51.27
2019-02-11T02:00:36.694Z,50.51
2019-02-11T02:01:41.579Z,50.79
2019-02-11T02:02:47.092Z,51.21
2019-02-11T02:03:52.420Z,50.51
2019-02-11T02:04:57.987Z,49.87
2019-02-11T02:06:03.141Z,49.27
2019-02-11T02:07:08.782Z,48.82
2019-02-11T02:08:14.480Z,48.90
2019-02-11T02:09:19.444Z,48.95
2019-02-11T02:10:24.615Z,48.49
2019-02-11T02:11:29.576Z,48.13
2019-02-11T02:12:34.780Z,49.16
2019-02-11T02:13:44.811Z,48.29
2019-02-11T02:14:47.019Z,48.33
2019-02-11T02:15:51.956Z,48.27
2019-02-11T02:16:57.173Z,48.24
2019-02-11T02:18:02.383Z,48.14
2019-02-11T02:19:07.462Z,48.22
2019-02-11T02:20:13.739Z,48.80
2019-02-11T02:21:18.926Z,48.63
2019-02-11T02:22:23.365Z,48.46
2019-02-11T02:23:28.898Z,48.59
2019-02-11T02:24:34.136Z,48.62
2019-02-11T02:25:39.304Z,48.76
2019-02-11T02:26:44.548Z,49.36
2019-02-11T02:27:49.986Z,49.31
2019-02-11T02:28:55.518Z,49.36
2019-02-11T02:30:01.026Z,50.16
2019-02-11T02:31:05.687Z,49.50
2019-02-11T02:32:10.938Z,49.07
2019-02-11T02:33:16.176Z,49.55
2019-02-11T02:34:21.694Z,49.99
2019-02-11T02:35:27.122Z,49.38
2019-02-11T02:36:32.594Z,49.26
2019-02-11T02:37:37.517Z,48.89
2019-02-11T02:38:42.285Z,48.79
2019-02-11T02:39:47.823Z,49.47
2019-02-11T02:40:52.813Z,49.36
2019-02-11T02:41:57.692Z,49.27
2019-02-11T02:43:03.159Z,49.38
2019-02-11T02:44:08.675Z,48.94
2019-02-11T02:45:13.814Z,48.61
2019-02-11T02:46:19.827Z,48.83
2019-02-11T02:47:25.129Z,48.92
2019-02-11T02:48:30.086Z,49.83
2019-02-11T02:49:34.676Z,49.26
2019-02-11T02:50:39.570Z,49.97
2019-02-11T02:51:44.949Z,49.17
2019-02-11T02:52:49.924Z,48.92
2019-02-11T02:53:54.869Z,49.81
2019-02-11T02:55:00.119Z,49.14
2019-02-11T02:56:05.511Z,49.50
2019-02-11T02:57:10.230Z,48.66
2019-02-11T02:58:15.779Z,49.43
2019-02-11T02:59:20.762Z,49.20
2019-02-11T03:00:25.982Z,49.15
2019-02-11T03:01:30.737Z,47.84
2019-02-11T03:02:35.697Z,48.62
2019-02-11T03:03:40.956Z,48.37
2019-02-11T03:04:45.622Z,48.64
2019-02-11T03:05:52.873Z,48.86
2019-02-11T03:06:57.651Z,48.00
2019-02-11T03:08:02.624Z,48.83
2019-02-11T03:09:07.877Z,48.75
2019-02-11T03:10:12.946Z,48.79
2019-02-11T03:11:18.953Z,48.25
2019-02-11T03:12:24.261Z,48.21
2019-02-11T03:13:29.863Z,47.73
2019-02-11T03:14:35.025Z,48.23
2019-02-11T03:15:40.701Z,47.46
2019-02-11T03:16:46.017Z,48.39
2019-02-11T03:17:51.792Z,47.75
2019-02-11T03:18:56.472Z,47.42
2019-02-11T03:20:01.425Z,47.61
2019-02-11T03:21:06.402Z,47.92
2019-02-11T03:22:11.647Z,47.75
2019-02-11T03:23:17.204Z,47.61
2019-02-11T03:24:22.628Z,47.95
2019-02-11T03:25:28.360Z,47.38
2019-02-11T03:26:33.255Z,48.08
2019-02-11T03:27:38.372Z,48.76
2019-02-11T03:28:43.805Z,48.17
2019-02-11T03:29:48.919Z,47.88
2019-02-11T03:30:54.245Z,47.93
2019-02-11T03:32:00.102Z,47.90
2019-02-11T03:33:04.976Z,47.60
2019-02-11T03:34:10.610Z,48.44
2019-02-11T03:35:16.231Z,48.06
2019-02-11T03:36:21.268Z,47.99
2019-02-11T03:37:26.577Z,48.05
2019-02-11T03:38:31.450Z,48.20
2019-02-11T03:39:36.491Z,48.51
2019-02-11T03:40:41.621Z,47.91
2019-02-11T03:41:46.726Z,48.60
2019-02-11T03:42:51.239Z,48.52
2019-02-11T03:43:57.633Z,48.06
2019-02-11T03:45:02.723Z,49.19
2019-02-11T03:46:07.702Z,48.61
2019-02-11T03:47:12.159Z,48.46
2019-02-11T03:48:17.854Z,48.17
2019-02-11T03:49:23.199Z,48.67
2019-02-11T03:50:28.419Z,48.99
2019-02-11T03:51:33.512Z,48.50
2019-02-11T03:52:38.525Z,48.77
2019-02-11T03:53:43.575Z,48.92
2019-02-11T03:54:48.591Z,49.03
2019-02-11T03:55:53.312Z,49.34
2019-02-11T03:56:58.300Z,49.14
2019-02-11T03:58:03.017Z,48.95
2019-02-11T03:59:07.647Z,49.46
2019-02-11T04:00:12.858Z,49.06
2019-02-11T04:01:17.882Z,49.03
2019-02-11T04:02:22.727Z,49.22
2019-02-11T04:03:27.985Z,49.19
2019-02-11T04:04:32.667Z,49.50
2019-02-11T04:05:37.912Z,49.73
2019-02-11T04:06:43.539Z,50.40
2019-02-11T04:07:48.703Z,50.04
2019-02-11T04:08:53.690Z,49.85
2019-02-11T04:09:58.643Z,49.71
2019-02-11T04:11:03.650Z,50.03
2019-02-11T04:12:08.627Z,49.42
2019-02-11T04:13:13.597Z,49.09
2019-02-11T04:14:24.631Z,48.94
2019-02-11T04:15:25.919Z,49.76
2019-02-11T04:16:30.890Z,50.01
2019-02-11T04:17:36.315Z,49.72
2019-02-11T04:18:40.866Z,49.01
2019-02-11T04:19:46.085Z,49.89
2019-02-11T04:20:51.254Z,49.45
2019-02-11T04:22:09.607Z,49.30
2019-02-11T04:23:14.561Z,49.68
2019-02-11T04:24:19.278Z,49.71
2019-02-11T04:25:24.038Z,49.53
2019-02-11T04:26:29.265Z,49.97
2019-02-11T04:27:33.893Z,49.24
2019-02-11T04:28:39.139Z,49.25
2019-02-11T04:29:44.473Z,49.42
2019-02-11T04:30:49.612Z,49.58
2019-02-11T04:31:54.071Z,49.65
2019-02-11T04:32:59.332Z,49.42
2019-02-11T04:34:04.301Z,48.85
2019-02-11T04:35:09.880Z,49.02
2019-02-11T04:36:15.393Z,48.92
2019-02-11T04:37:20.620Z,49.02
2019-02-11T04:38:25.785Z,48.93
2019-02-11T04:39:30.486Z,49.34
2019-02-11T04:40:35.424Z,49.52
2019-02-11T04:41:40.686Z,49.78
2019-02-11T04:42:46.375Z,49.86
2019-02-11T04:43:51.233Z,49.17
2019-02-11T04:44:56.223Z,48.97
2019-02-11T04:46:01.485Z,48.81
2019-02-11T04:47:06.205Z,48.74
2019-02-11T04:48:11.158Z,48.92
2019-02-11T04:49:16.387Z,48.94
2019-02-11T04:50:21.342Z,48.46
2019-02-11T04:51:26.262Z,48.70
2019-02-11T04:52:31.613Z,48.82
2019-02-11T04:53:37.103Z,48.37
2019-02-11T04:54:43.489Z,48.80
2019-02-11T04:55:48.203Z,48.58
2019-02-11T04:56:53.384Z,49.08
2019-02-11T04:57:58.271Z,49.33
2019-02-11T04:59:03.437Z,48.88
2019-02-11T05:00:09.199Z,48.92
2019-02-11T05:01:14.178Z,48.85
2019-02-11T05:02:19.322Z,48.94
2019-02-11T05:03:24.286Z,48.80
2019-02-11T05:04:29.312Z,48.17
2019-02-11T05:05:34.620Z,48.67
2019-02-11T05:06:40.833Z,48.97
2019-02-11T05:07:46.215Z,49.34
2019-02-11T05:08:51.367Z,49.14
2019-02-11T05:09:56.611Z,49.03
2019-02-11T05:11:01.853Z,48.60
2019-02-11T05:12:07.076Z,48.32
2019-02-11T05:13:12.228Z,49.87
2019-02-11T05:14:17.729Z,49.69
2019-02-11T05:15:23.272Z,49.83
2019-02-11T05:16:27.938Z,50.08
2019-02-11T05:17:32.574Z,49.66
2019-02-11T05:18:37.721Z,49.78
2019-02-11T05:19:43.414Z,49.22
2019-02-11T05:20:48.987Z,49.24
2019-02-11T05:21:54.275Z,49.62
2019-02-11T05:22:59.447Z,49.33
2019-02-11T05:24:04.329Z,50.28
2019-02-11T05:25:09.274Z,50.32
2019-02-11T05:26:14.441Z,49.98
2019-02-11T05:27:19.135Z,50.04
2019-02-11T05:28:23.862Z,50.30
2019-02-11T05:29:29.289Z,50.02
2019-02-11T05:30:34.780Z,49.74
2019-02-11T05:31:39.658Z,50.26
2019-02-11T05:32:44.903Z,50.18
2019-02-11T05:33:49.854Z,49.69
2019-02-11T05:34:54.805Z,49.78
2019-02-11T05:35:59.223Z,49.59
2019-02-11T05:37:04.710Z,50.18
2019-02-11T05:38:09.848Z,49.94
2019-02-11T05:39:14.870Z,49.88
2019-02-11T05:40:19.546Z,50.23
2019-02-11T05:41:24.722Z,50.13
2019-02-11T05:42:29.966Z,49.55
2019-02-11T05:43:34.915Z,49.31
2019-02-11T05:44:40.352Z,49.15
2019-02-11T05:45:45.236Z,49.02
2019-02-11T05:46:50.202Z,49.73
2019-02-11T05:47:55.448Z,49.52
2019-02-11T05:49:00.518Z,50.39
2019-02-11T05:50:05.884Z,50.17
2019-02-11T05:51:10.851Z,50.00
2019-02-11T05:52:15.808Z,48.90
2019-02-11T05:53:21.015Z,49.26
2019-02-11T05:54:26.270Z,49.27
2019-02-11T05:55:31.400Z,49.25
2019-02-11T05:56:36.325Z,49.34
2019-02-11T05:57:41.346Z,49.03
2019-02-11T05:58:46.806Z,49.30
2019-02-11T05:59:52.050Z,49.70
2019-02-11T06:00:57.549Z,49.31
2019-02-11T06:02:02.781Z,49.26
2019-02-11T06:03:09.564Z,49.69
2019-02-11T06:04:15.229Z,50.21
2019-02-11T06:05:20.751Z,51.03
2019-02-11T06:06:25.691Z,50.07
2019-02-11T06:07:30.568Z,49.88
2019-02-11T06:08:35.707Z,50.19
2019-02-11T06:09:40.958Z,49.48
2019-02-11T06:10:45.908Z,49.55
2019-02-11T06:11:50.763Z,48.71
2019-02-11T06:12:55.636Z,48.66
2019-02-11T06:14:01.191Z,48.63
2019-02-11T06:15:06.445Z,48.83
2019-02-11T06:16:11.675Z,48.55
2019-02-11T06:17:16.543Z,48.24
2019-02-11T06:18:21.392Z,48.08
2019-02-11T06:19:26.564Z,48.13
2019-02-11T06:20:31.512Z,48.64
2019-02-11T06:21:36.461Z,48.65
2019-02-11T06:22:44.698Z,48.83
2019-02-11T06:23:49.971Z,49.12
2019-02-11T06:24:54.582Z,49.25
2019-02-11T06:25:59.818Z,49.52
2019-02-11T06:27:04.793Z,49.47
2019-02-11T06:28:09.950Z,48.73
2019-02-11T06:29:15.183Z,49.03
2019-02-11T06:30:19.759Z,49.83
2019-02-11T06:31:25.043Z,49.13
2019-02-11T06:32:29.621Z,48.48
2019-02-11T06:33:34.592Z,48.34
2019-02-11T06:34:40.351Z,48.83
2019-02-11T06:35:45.798Z,48.42
2019-02-11T06:36:50.777Z,48.52
2019-02-11T06:37:56.246Z,48.37
2019-02-11T06:39:01.427Z,48.78
2019-02-11T06:40:07.451Z,49.02
2019-02-11T06:41:12.324Z,48.51
2019-02-11T06:42:17.567Z,48.91
2019-02-11T06:43:22.236Z,48.80
2019-02-11T06:44:27.384Z,48.25
2019-02-11T06:45:32.963Z,47.99
2019-02-11T06:46:37.599Z,48.27
2019-02-11T06:47:44.082Z,48.12
2019-02-11T06:48:49.243Z,48.12
2019-02-11T06:49:54.459Z,48.25
2019-02-11T06:50:59.955Z,48.04
2019-02-11T06:52:04.648Z,48.53
2019-02-11T06:53:09.848Z,48.70
2019-02-11T06:54:14.436Z,47.98
2019-02-11T06:55:19.757Z,48.32
2019-02-11T06:56:24.721Z,48.46
2019-02-11T06:57:29.658Z,48.31
2019-02-11T06:58:35.141Z,48.25
2019-02-11T06:59:40.265Z,47.56
2019-02-11T07:00:45.387Z,48.07
2019-02-11T07:01:50.457Z,47.68
2019-02-11T07:02:55.189Z,47.79
2019-02-11T07:04:00.339Z,48.75
2019-02-11T07:05:04.948Z,48.66
2019-02-11T07:06:10.188Z,48.16
2019-02-11T07:07:15.401Z,48.43
2019-02-11T07:08:20.374Z,48.46
2019-02-11T07:09:25.205Z,48.67
2019-02-11T07:10:30.720Z,48.10
2019-02-11T07:11:35.637Z,48.22
2019-02-11T07:12:40.411Z,48.05
2019-02-11T07:13:45.291Z,48.55
2019-02-11T07:14:50.197Z,48.38
2019-02-11T07:15:55.737Z,48.92
2019-02-11T07:17:00.952Z,47.97
2019-02-11T07:18:05.615Z,48.56
2019-02-11T07:19:11.138Z,48.78
2019-02-11T07:20:15.566Z,48.99
2019-02-11T07:21:21.050Z,49.54
2019-02-11T07:22:25.993Z,49.06
2019-02-11T07:23:31.509Z,48.63
2019-02-11T07:24:36.743Z,47.78
2019-02-11T07:25:45.020Z,48.36
2019-02-11T07:26:50.732Z,48.53
2019-02-11T07:27:55.964Z,48.47
2019-02-11T07:29:01.131Z,48.41
2019-02-11T07:30:06.335Z,48.87
2019-02-11T07:31:11.271Z,48.74
2019-02-11T07:32:16.637Z,48.52
2019-02-11T07:33:21.760Z,48.13
2019-02-11T07:34:27.287Z,47.93
2019-02-11T07:35:32.328Z,47.96
2019-02-11T07:36:37.996Z,48.21
2019-02-11T07:37:43.289Z,48.34
2019-02-11T07:38:48.183Z,48.53
2019-02-11T07:39:53.145Z,48.75
2019-02-11T07:40:58.326Z,48.22
2019-02-11T07:42:28.212Z,48.80
2019-02-11T07:43:41.617Z,48.72
2019-02-11T07:44:51.156Z,49.06
2019-02-11T07:46:03.170Z,48.62
2019-02-11T07:47:08.274Z,48.37
2019-02-11T07:48:13.427Z,49.00
2019-02-11T07:49:18.365Z,48.87
2019-02-11T07:50:23.600Z,48.46
2019-02-11T07:51:29.087Z,49.20
2019-02-11T07:52:34.019Z,48.83
2019-02-11T07:53:38.970Z,48.10
2019-02-11T07:54:43.901Z,47.85
2019-02-11T07:55:48.832Z,48.30
2019-02-11T07:56:54.051Z,47.82
2019-02-11T07:57:59.091Z,48.39
2019-02-11T07:59:03.765Z,47.36
2019-02-11T08:00:08.830Z,47.55
2019-02-11T08:01:14.350Z,48.04
2019-02-11T08:02:19.616Z,48.16
2019-02-11T08:03:24.651Z,48.66
2019-02-11T08:04:29.921Z,47.99
2019-02-11T08:05:34.598Z,48.57
2019-02-11T08:06:39.734Z,47.96
2019-02-11T08:07:44.841Z,48.27
2019-02-11T08:08:50.369Z,47.83
2019-02-11T08:09:55.799Z,48.21
2019-02-11T08:11:01.252Z,47.59
2019-02-11T08:12:06.109Z,47.01
2019-02-11T08:13:11.073Z,46.87
2019-02-11T08:14:15.832Z,47.10
2019-02-11T08:15:20.730Z,46.89
2019-02-11T08:16:25.241Z,48.20
2019-02-11T08:17:30.114Z,47.53
2019-02-11T08:18:34.667Z,47.45
2019-02-11T08:19:39.916Z,47.64
2019-02-11T08:20:45.191Z,47.44
2019-02-11T08:21:50.612Z,46.63
2019-02-11T08:22:56.092Z,46.87
2019-02-11T08:24:01.071Z,46.36
2019-02-11T08:25:05.806Z,47.00
2019-02-11T08:26:11.002Z,46.59
2019-02-11T08:27:16.227Z,46.09
2019-02-11T08:28:21.215Z,44.97
2019-02-11T08:29:26.200Z,44.89
2019-02-11T08:30:30.971Z,44.75
2019-02-11T08:31:35.876Z,44.22
2019-02-11T08:32:41.081Z,44.68
2019-02-11T08:33:45.758Z,43.73
2019-02-11T08:34:50.713Z,43.39
2019-02-11T08:35:55.392Z,44.10
2019-02-11T08:37:00.945Z,43.50
2019-02-11T08:38:06.140Z,44.34
2019-02-11T08:39:11.727Z,43.88
2019-02-11T08:40:16.695Z,44.36
2019-02-11T08:41:21.637Z,43.85
2019-02-11T08:42:26.500Z,43.55
2019-02-11T08:43:31.383Z,44.04
2019-02-11T08:44:36.620Z,44.20
2019-02-11T08:45:46.773Z,44.18
2019-02-11T08:46:48.355Z,44.34
2019-02-11T08:47:53.494Z,44.37
2019-02-11T08:48:58.378Z,43.94
2019-02-11T08:50:03.391Z,43.71
2019-02-11T08:51:08.371Z,44.07
2019-02-11T08:52:13.318Z,44.07
2019-02-11T08:53:18.839Z,44.41
2019-02-11T08:54:24.098Z,44.83
2019-02-11T08:55:28.973Z,44.07
2019-02-11T08:56:33.629Z,44.05
2019-02-11T08:57:38.872Z,44.42
2019-02-11T08:58:44.117Z,44.53
2019-02-11T08:59:48.998Z,45.90
2019-02-11T09:00:54.132Z,44.99
2019-02-11T09:01:59.390Z,45.06
2019-02-11T09:03:04.079Z,44.81
2019-02-11T09:04:09.595Z,44.68
2019-02-11T09:05:14.483Z,45.09
2019-02-11T09:06:19.712Z,45.30
2019-02-11T09:07:24.956Z,45.29
2019-02-11T09:08:29.901Z,45.48
2019-02-11T09:09:35.147Z,44.47
2019-02-11T09:10:40.538Z,44.23
2019-02-11T09:11:45.232Z,44.06
2019-02-11T09:12:50.099Z,44.78
2019-02-11T09:13:54.946Z,45.18
2019-02-11T09:14:59.927Z,44.87
2019-02-11T09:16:04.459Z,44.95
2019-02-11T09:17:10.584Z,44.72
2019-02-11T09:18:15.640Z,44.83
2019-02-11T09:19:20.903Z,45.04
2019-02-11T09:20:25.849Z,44.83
2019-02-11T09:21:31.072Z,44.16
2019-02-11T09:22:36.294Z,44.89
2019-02-11T09:23:41.845Z,44.36
2019-02-11T09:24:46.849Z,44.98
2019-02-11T09:25:52.085Z,44.34
2019-02-11T09:26:57.298Z,44.02
2019-02-11T09:28:02.291Z,43.64
2019-02-11T09:29:07.004Z,43.38
2019-02-11T09:30:13.658Z,43.14
2019-02-11T09:31:18.802Z,42.95
2019-02-11T09:32:23.929Z,42.33
2019-02-11T09:33:29.148Z,42.60
2019-02-11T09:34:34.173Z,43.06
2019-02-11T09:35:39.261Z,42.79
2019-02-11T09:36:44.268Z,41.97
2019-02-11T09:37:49.783Z,41.74
2019-02-11T09:38:54.942Z,41.06
2019-02-11T09:40:00.343Z,40.87
2019-02-11T09:41:05.278Z,40.45
2019-02-11T09:42:09.971Z,40.97
2019-02-11T09:43:15.194Z,40.92
2019-02-11T09:44:20.570Z,39.71
2019-02-11T09:45:25.657Z,40.00
2019-02-11T09:46:30.635Z,40.20
2019-02-11T09:47:35.509Z,39.87
2019-02-11T09:48:40.485Z,40.26
2019-02-11T09:49:46.899Z,40.72
2019-02-11T09:50:53.492Z,40.33
2019-02-11T09:51:58.499Z,39.85
2019-02-11T09:53:03.694Z,40.01
2019-02-11T09:54:09.667Z,39.38
2019-02-11T09:55:17.692Z,39.73
2019-02-11T09:56:22.932Z,40.23
2019-02-11T09:57:27.631Z,39.58
2019-02-11T09:58:32.608Z,39.99
2019-02-11T09:59:37.602Z,39.46
2019-02-11T10:00:42.645Z,39.18
2019-02-11T10:01:47.588Z,38.55
2019-02-11T10:02:52.814Z,39.20
2019-02-11T10:03:57.652Z,39.26
2019-02-11T10:05:02.730Z,39.93
2019-02-11T10:06:07.926Z,39.61
2019-02-11T10:07:13.137Z,39.80
2019-02-11T10:08:17.559Z,39.14
2019-02-11T10:09:22.145Z,38.52
2019-02-11T10:10:27.381Z,38.78
2019-02-11T10:11:32.591Z,39.62
2019-02-11T10:12:38.101Z,38.47
2019-02-11T10:13:43.375Z,38.38
2019-02-11T10:14:48.306Z,40.01
2019-02-11T10:15:53.526Z,40.38
2019-02-11T10:16:58.515Z,40.15
2019-02-11T10:18:04.021Z,40.64
2019-02-11T10:19:08.972Z,40.40
2019-02-11T10:20:13.658Z,40.06
2019-02-11T10:21:18.894Z,40.16
2019-02-11T10:22:23.798Z,39.45
2019-02-11T10:23:29.309Z,39.73
2019-02-11T10:24:34.179Z,40.82
2019-02-11T10:25:39.437Z,41.17
2019-02-11T10:26:44.638Z,41.26
2019-02-11T10:27:49.881Z,41.56
2019-02-11T10:28:55.095Z,42.56
2019-02-11T10:30:00.294Z,41.84
2019-02-11T10:31:05.509Z,41.78
2019-02-11T10:32:10.001Z,41.95
2019-02-11T10:33:14.968Z,42.60
2019-02-11T10:34:19.893Z,41.44
2019-02-11T10:35:24.585Z,41.59
2019-02-11T10:36:29.557Z,42.20
2019-02-11T10:37:34.786Z,42.94
2019-02-11T10:38:40.058Z,43.31
2019-02-11T10:39:45.255Z,42.10
2019-02-11T10:40:50.200Z,41.62
2019-02-11T10:41:55.130Z,41.43
2019-02-11T10:43:00.082Z,42.04
2019-02-11T10:44:05.021Z,42.26
2019-02-11T10:45:11.712Z,42.14
2019-02-11T10:46:20.949Z,41.74
2019-02-11T10:47:23.665Z,41.67
2019-02-11T10:48:28.339Z,40.93
2019-02-11T10:49:33.845Z,41.18
2019-02-11T10:50:40.507Z,40.29
2019-02-11T10:51:45.151Z,40.78
2019-02-11T10:52:49.823Z,40.88
2019-02-11T10:53:55.030Z,41.53
2019-02-11T10:55:00.549Z,42.09
2019-02-11T10:56:05.800Z,41.03
2019-02-11T10:57:11.020Z,40.77
2019-02-11T10:58:16.279Z,41.08
2019-02-11T10:59:20.556Z,40.48
2019-02-11T11:00:25.538Z,39.80
2019-02-11T11:01:30.506Z,40.17
2019-02-11T11:02:35.197Z,39.99
2019-02-11T11:03:39.952Z,40.00
2019-02-11T11:04:45.181Z,40.07
2019-02-11T11:05:50.130Z,40.25
2019-02-11T11:06:55.371Z,40.36
2019-02-11T11:08:00.383Z,39.91
2019-02-11T11:09:08.258Z,40.22
2019-02-11T11:10:16.029Z,39.37
2019-02-11T11:11:21.117Z,39.50
2019-02-11T11:12:26.671Z,39.45
2019-02-11T11:13:32.421Z,39.92
2019-02-11T11:14:37.689Z,39.94
2019-02-11T11:15:43.079Z,39.19
2019-02-11T11:16:49.131Z,39.27
2019-02-11T11:17:54.103Z,39.49
2019-02-11T11:18:58.529Z,39.45
2019-02-11T11:20:03.247Z,39.71
2019-02-11T11:21:09.935Z,39.82
2019-02-11T11:22:15.278Z,40.08
2019-02-11T11:23:20.796Z,40.50
2019-02-11T11:24:25.562Z,40.75
2019-02-11T11:25:31.100Z,40.69
2019-02-11T11:26:36.319Z,40.47
2019-02-11T11:27:41.335Z,40.00
2019-02-11T11:28:45.996Z,38.96
2019-02-11T11:29:50.937Z,39.64
2019-02-11T11:30:55.806Z,39.25
2019-02-11T11:32:00.454Z,39.83
2019-02-11T11:33:05.897Z,39.98
2019-02-11T11:34:11.500Z,40.80
2019-02-11T11:35:17.027Z,40.78
2019-02-11T11:36:22.167Z,40.79
2019-02-11T11:37:27.382Z,40.36
2019-02-11T11:38:32.120Z,40.63
2019-02-11T11:39:37.349Z,40.35
2019-02-11T11:40:42.328Z,40.10
2019-02-11T11:41:47.290Z,40.40
2019-02-11T11:42:52.715Z,40.44
2019-02-11T11:43:57.377Z,41.10
2019-02-11T11:45:02.320Z,41.17
2019-02-11T11:46:07.907Z,40.21
2019-02-11T11:47:12.904Z,40.74
2019-02-11T11:48:18.143Z,40.72
2019-02-11T11:49:23.418Z,40.34
2019-02-11T11:50:28.349Z,40.24
2019-02-11T11:51:33.024Z,40.15
2019-02-11T11:52:38.990Z,39.85
2019-02-11T11:53:44.339Z,39.39
2019-02-11T11:54:49.318Z,39.62
2019-02-11T11:55:54.572Z,39.46
2019-02-11T11:56:59.585Z,38.94
2019-02-11T11:58:04.871Z,38.33
2019-02-11T11:59:09.845Z,38.75
2019-02-11T12:00:22.897Z,38.16
2019-02-11T12:01:27.959Z,37.96
2019-02-11T12:02:33.183Z,39.07
2019-02-11T12:03:37.904Z,39.01
2019-02-11T12:04:43.608Z,40.14
2019-02-11T12:05:48.317Z,39.62
2019-02-11T12:06:53.240Z,39.95
2019-02-11T12:07:58.224Z,40.48
2019-02-11T12:09:05.306Z,40.28
2019-02-11T12:10:10.120Z,41.60
2019-02-11T12:11:14.838Z,41.91
2019-02-11T12:12:19.871Z,41.44
2019-02-11T12:13:24.924Z,41.80
2019-02-11T12:14:29.840Z,42.48
2019-02-11T12:15:34.636Z,42.19
2019-02-11T12:16:55.489Z,43.08
2019-02-11T12:17:46.363Z,43.21
2019-02-11T12:18:51.684Z,44.04
2019-02-11T12:19:56.692Z,43.77
2019-02-11T12:21:01.950Z,43.78
2019-02-11T12:22:06.630Z,43.91
2019-02-11T12:23:11.422Z,44.71
2019-02-11T12:24:16.647Z,44.22
2019-02-11T12:25:21.356Z,43.56
2019-02-11T12:26:26.294Z,44.32
2019-02-11T12:27:31.196Z,45.15
2019-02-11T12:28:35.917Z,44.46
2019-02-11T12:29:40.622Z,44.32
2019-02-11T12:30:45.320Z,44.38
2019-02-11T12:31:50.534Z,44.87
2019-02-11T12:32:56.277Z,45.62
2019-02-11T12:34:01.563Z,45.22
2019-02-11T12:35:06.953Z,45.27
2019-02-11T12:36:11.613Z,45.76
2019-02-11T12:37:16.071Z,45.16
2019-02-11T12:38:20.760Z,45.71
2019-02-11T12:39:25.695Z,45.09
2019-02-11T12:40:30.924Z,45.42
2019-02-11T12:41:36.432Z,44.66
2019-02-11T12:42:41.248Z,45.48
2019-02-11T12:43:46.495Z,45.10
2019-02-11T12:44:51.177Z,44.86
2019-02-11T12:45:55.894Z,45.12
2019-02-11T12:47:13.323Z,44.88
2019-02-11T12:48:07.861Z,45.21
2019-02-11T12:49:12.844Z,44.71
2019-02-11T12:50:17.822Z,45.13
2019-02-11T12:51:22.194Z,44.91
2019-02-11T12:52:27.177Z,44.58
2019-02-11T12:53:31.897Z,44.87
2019-02-11T12:54:36.928Z,45.21
2019-02-11T12:55:41.781Z,45.29
2019-02-11T12:56:46.487Z,45.42
2019-02-11T12:57:51.506Z,44.95
2019-02-11T12:58:56.435Z,44.84
2019-02-11T13:00:01.058Z,45.54
2019-02-11T13:01:05.624Z,45.49
2019-02-11T13:02:10.604Z,45.49
2019-02-11T13:03:14.982Z,45.07
2019-02-11T13:04:19.630Z,44.43
2019-02-11T13:05:43.512Z,44.66
2019-02-11T13:06:31.070Z,44.31
2019-02-11T13:07:35.679Z,46.14
2019-02-11T13:08:40.023Z,45.25
2019-02-11T13:09:45.017Z,45.57
2019-02-11T13:10:49.642Z,45.39
2019-02-11T13:11:54.294Z,46.51
2019-02-11T13:12:59.013Z,45.87
2019-02-11T13:14:04.258Z,45.63
2019-02-11T13:15:09.292Z,44.94
2019-02-11T13:16:13.902Z,45.50
2019-02-11T13:17:32.693Z,46.42
2019-02-11T13:18:25.291Z,46.22
2019-02-11T13:19:31.112Z,46.44
2019-02-11T13:20:35.819Z,46.51
2019-02-11T13:21:41.135Z,45.84
2019-02-11T13:22:46.423Z,47.47
2019-02-11T13:23:51.141Z,48.50
2019-02-11T13:24:55.926Z,48.06
2019-02-11T13:26:01.161Z,49.03
2019-02-11T13:27:06.066Z,48.41
2019-02-11T13:28:11.013Z,47.88
2019-02-11T13:29:15.642Z,48.66
2019-02-11T13:30:21.106Z,48.36
2019-02-11T13:31:26.098Z,50.43
2019-02-11T13:32:30.933Z,49.38
2019-02-11T13:33:35.972Z,48.58
2019-02-11T13:34:41.263Z,47.46
2019-02-11T13:35:45.649Z,45.55
2019-02-11T13:36:50.579Z,45.38
2019-02-11T13:37:56.268Z,45.56
2019-02-11T13:39:01.705Z,44.56
2019-02-11T13:40:07.043Z,45.17
2019-02-11T13:41:12.266Z,45.71
2019-02-11T13:42:17.187Z,46.87
2019-02-11T13:43:22.177Z,46.68
2019-02-11T13:44:26.985Z,47.04
2019-02-11T13:45:31.987Z,47.25
2019-02-11T13:46:37.502Z,46.58
2019-02-11T13:47:53.644Z,46.75
2019-02-11T13:48:51.469Z,46.06
2019-02-11T13:49:57.002Z,46.05
2019-02-11T13:51:01.670Z,45.57
2019-02-11T13:52:06.614Z,45.29
2019-02-11T13:53:11.537Z,46.17
2019-02-11T13:54:16.230Z,46.30
2019-02-11T13:55:20.758Z,45.99
2019-02-11T13:56:25.820Z,46.03
2019-02-11T13:57:31.230Z,45.72
2019-02-11T13:58:36.219Z,45.41
2019-02-11T13:59:41.184Z,46.46
2019-02-11T14:00:49.613Z,45.77